createdAt,value
2022-12-31T00:00:22.740Z,4.51
2022-12-31T00:01:26.913Z,4.65
2022-12-31T00:02:30.109Z,6.86
2022-12-31T00:03:34.540Z,4.22
2022-12-31T00:04:37.651Z,4.81
2022-12-31T00:05:40.716Z,3.94
2022-12-31T00:06:44.145Z,4.49
2022-12-31T00:07:47.322Z,5.15
2022-12-31T00:08:52.023Z,4.97
2022-12-31T00:09:54.964Z,7.19
2022-12-31T00:10:58.027Z,5.56
2022-12-31T00:12:01.059Z,4.26
2022-12-31T00:13:04.200Z,4.79
2022-12-31T00:14:07.452Z,4.73
2022-12-31T00:15:10.811Z,4.54
2022-12-31T00:16:16.577Z,4.29
2022-12-31T00:17:19.573Z,4.89
2022-12-31T00:18:22.660Z,4.42
2022-12-31T00:19:25.840Z,5.24
2022-12-31T00:20:29.289Z,4.28
2022-12-31T00:21:33.953Z,4.42
2022-12-31T00:22:37.228Z,4.67
2022-12-31T00:23:40.547Z,4.56
2022-12-31T00:24:43.650Z,4.58
2022-12-31T00:25:46.863Z,4.81
2022-12-31T00:26:50.087Z,4.58
2022-12-31T00:27:54.057Z,4.36
2022-12-31T00:28:58.438Z,4.56
2022-12-31T00:30:04.728Z,5.49
2022-12-31T00:32:19.736Z,4.68
2022-12-31T00:33:22.870Z,4.76
2022-12-31T00:34:26.046Z,4.42
2022-12-31T00:35:29.188Z,4.96
2022-12-31T00:36:37.422Z,4.39
2022-12-31T00:37:40.570Z,4.68
2022-12-31T00:38:45.753Z,4.78
2022-12-31T00:39:48.799Z,4.57
2022-12-31T00:40:51.950Z,4.99
2022-12-31T00:41:55.137Z,4.31
2022-12-31T00:42:58.271Z,4.83
2022-12-31T00:44:01.601Z,4.51
2022-12-31T00:45:05.239Z,4.98
2022-12-31T00:46:09.430Z,4.36
2022-12-31T00:47:12.549Z,5.05
2022-12-31T00:48:15.683Z,4.05
2022-12-31T00:49:18.968Z,4.37
2022-12-31T00:50:22.007Z,4.67
2022-12-31T00:51:26.861Z,5.04
2022-12-31T00:52:30.041Z,4.58
2022-12-31T00:53:33.657Z,4.45
2022-12-31T00:54:36.873Z,4.79
2022-12-31T00:55:40.109Z,4.96
2022-12-31T00:56:43.321Z,4.32
2022-12-31T00:57:46.497Z,5.12
2022-12-31T00:58:50.602Z,4.50
2022-12-31T00:59:53.688Z,4.36
2022-12-31T01:00:57.410Z,4.41
2022-12-31T01:02:00.754Z,4.57
2022-12-31T01:03:04.446Z,4.65
2022-12-31T01:04:10.999Z,5.52
2022-12-31T01:05:14.297Z,4.24
2022-12-31T01:06:18.344Z,4.74
2022-12-31T01:07:21.411Z,4.27
2022-12-31T01:08:24.524Z,5.44
2022-12-31T01:09:27.604Z,4.96
2022-12-31T01:10:49.114Z,4.65
2022-12-31T01:11:52.190Z,4.69
2022-12-31T01:12:55.374Z,4.44
2022-12-31T01:14:13.164Z,4.92
2022-12-31T01:15:16.287Z,4.41
2022-12-31T01:16:22.650Z,4.64
2022-12-31T01:17:25.758Z,5.88
2022-12-31T01:18:28.916Z,5.28
2022-12-31T01:19:32.038Z,5.49
2022-12-31T01:20:40.139Z,5.15
2022-12-31T01:21:45.196Z,5.88
2022-12-31T01:22:48.290Z,5.24
2022-12-31T01:23:51.475Z,5.60
2022-12-31T01:24:54.821Z,5.95
2022-12-31T01:26:02.853Z,5.16
2022-12-31T01:27:06.106Z,5.48
2022-12-31T01:28:09.736Z,5.28
2022-12-31T01:29:14.035Z,5.54
2022-12-31T01:30:17.409Z,5.02
2022-12-31T01:31:22.254Z,5.68
2022-12-31T01:32:26.219Z,5.08
2022-12-31T01:33:29.405Z,5.11
2022-12-31T01:34:32.593Z,6.24
2022-12-31T01:35:36.058Z,5.37
2022-12-31T01:36:40.022Z,5.25
2022-12-31T01:37:43.217Z,5.35
2022-12-31T01:38:46.411Z,4.77
2022-12-31T01:39:49.687Z,5.09
2022-12-31T01:40:53.068Z,4.65
2022-12-31T01:41:56.248Z,5.19
2022-12-31T01:42:59.428Z,4.83
2022-12-31T01:44:14.256Z,4.89
2022-12-31T01:45:17.456Z,4.91
2022-12-31T01:46:30.041Z,4.42
2022-12-31T01:47:36.833Z,4.92
2022-12-31T01:48:40.267Z,4.70
2022-12-31T01:49:55.944Z,5.57
2022-12-31T01:50:59.488Z,5.02
2022-12-31T01:52:21.040Z,4.51
2022-12-31T01:53:24.696Z,5.09
2022-12-31T01:54:31.733Z,5.49
2022-12-31T01:55:38.411Z,5.65
2022-12-31T01:56:44.891Z,4.87
2022-12-31T01:57:51.554Z,4.88
2022-12-31T01:58:56.825Z,5.07
2022-12-31T02:00:01.386Z,6.36
2022-12-31T02:01:06.740Z,5.48
2022-12-31T02:02:10.086Z,5.62
2022-12-31T02:03:14.110Z,4.71
2022-12-31T02:04:17.552Z,5.48
2022-12-31T02:05:33.297Z,4.62
2022-12-31T02:06:40.052Z,5.08
2022-12-31T02:07:44.244Z,5.94
2022-12-31T02:08:47.946Z,5.04
2022-12-31T02:09:51.890Z,5.31
2022-12-31T02:10:54.944Z,5.27
2022-12-31T02:11:58.104Z,5.33
2022-12-31T02:13:01.542Z,5.12
2022-12-31T02:14:11.251Z,4.94
2022-12-31T02:15:15.591Z,5.74
2022-12-31T02:16:25.590Z,5.28
2022-12-31T02:17:44.054Z,5.39
2022-12-31T02:19:09.819Z,5.01
2022-12-31T02:20:26.151Z,5.59
2022-12-31T02:21:41.842Z,5.33
2022-12-31T02:22:57.694Z,5.72
2022-12-31T02:24:25.453Z,6.84
2022-12-31T02:25:51.696Z,5.13
2022-12-31T02:27:10.279Z,5.82
2022-12-31T02:28:36.729Z,5.73
2022-12-31T02:30:13.427Z,5.13
2022-12-31T02:31:35.421Z,5.62
2022-12-31T02:33:02.655Z,5.23
2022-12-31T02:34:21.090Z,5.19
2022-12-31T02:36:42.155Z,6.71
2022-12-31T02:37:48.579Z,6.40
2022-12-31T02:38:52.333Z,5.63
2022-12-31T02:39:56.190Z,5.84
2022-12-31T02:41:00.587Z,6.46
2022-12-31T02:42:03.850Z,6.94
2022-12-31T02:43:07.284Z,5.91
2022-12-31T02:44:29.026Z,6.05
2022-12-31T02:45:35.734Z,6.62
2022-12-31T02:46:42.378Z,6.82
2022-12-31T02:47:52.055Z,6.81
2022-12-31T02:49:13.812Z,6.63
2022-12-31T02:50:35.648Z,6.34
2022-12-31T02:51:57.277Z,7.13
2022-12-31T02:53:13.057Z,6.72
2022-12-31T02:54:22.335Z,6.81
2022-12-31T02:55:46.871Z,6.86
2022-12-31T02:57:13.193Z,6.63
2022-12-31T02:58:27.403Z,6.16
2022-12-31T02:59:52.457Z,6.77
2022-12-31T03:01:16.067Z,6.92
2022-12-31T03:02:22.898Z,6.50
2022-12-31T03:03:27.259Z,6.98
2022-12-31T03:04:33.084Z,6.05
2022-12-31T03:05:42.580Z,6.63
2022-12-31T03:06:46.361Z,6.96
2022-12-31T03:07:49.533Z,6.83
2022-12-31T03:09:06.306Z,6.86
2022-12-31T03:11:39.527Z,6.23
2022-12-31T03:12:47.102Z,6.72
2022-12-31T03:13:50.325Z,6.74
2022-12-31T03:14:53.673Z,6.46
2022-12-31T03:15:56.918Z,7.65
2022-12-31T03:16:59.962Z,6.34
2022-12-31T03:18:06.574Z,6.39
2022-12-31T03:19:28.146Z,6.06
2022-12-31T03:20:58.547Z,6.29
2022-12-31T03:22:20.156Z,6.88
2022-12-31T03:23:29.468Z,7.88
2022-12-31T03:24:51.026Z,6.42
2022-12-31T03:25:55.764Z,6.70
2022-12-31T03:26:58.820Z,6.51
2022-12-31T03:28:03.854Z,6.72
2022-12-31T03:29:06.939Z,6.59
2022-12-31T03:30:12.034Z,7.19
2022-12-31T03:31:15.983Z,6.71
2022-12-31T03:32:19.152Z,6.49
2022-12-31T03:33:23.506Z,6.84
2022-12-31T03:34:26.753Z,6.35
2022-12-31T03:35:31.501Z,6.81
2022-12-31T03:36:34.695Z,6.43
2022-12-31T03:37:39.467Z,6.39
2022-12-31T03:38:42.918Z,7.48
2022-12-31T03:39:45.999Z,6.47
2022-12-31T03:40:51.576Z,9.35
2022-12-31T03:41:54.756Z,6.57
2022-12-31T03:42:58.105Z,6.48
2022-12-31T03:44:01.333Z,6.56
2022-12-31T03:45:05.140Z,6.47
2022-12-31T03:46:08.670Z,5.46
2022-12-31T03:47:11.795Z,6.62
2022-12-31T03:48:14.793Z,6.94
2022-12-31T03:49:17.908Z,6.18
2022-12-31T03:50:20.949Z,5.65
2022-12-31T03:51:24.001Z,6.71
2022-12-31T03:52:27.184Z,5.97
2022-12-31T03:53:30.214Z,6.29
2022-12-31T03:54:33.349Z,5.84
2022-12-31T03:55:36.497Z,5.89
2022-12-31T03:56:39.727Z,5.69
2022-12-31T03:57:42.787Z,5.29
2022-12-31T03:58:46.133Z,5.31
2022-12-31T03:59:49.204Z,5.06
2022-12-31T04:00:52.334Z,5.51
2022-12-31T04:01:55.443Z,5.77
2022-12-31T04:02:58.765Z,5.74
2022-12-31T04:04:02.166Z,5.65
2022-12-31T04:05:06.160Z,6.03
2022-12-31T04:06:09.621Z,5.39
2022-12-31T04:07:12.983Z,6.17
2022-12-31T04:08:16.176Z,6.31
2022-12-31T04:09:19.428Z,6.21
2022-12-31T04:10:22.856Z,5.60
2022-12-31T04:11:25.915Z,5.17
2022-12-31T04:12:28.972Z,6.33
2022-12-31T04:13:32.033Z,5.72
2022-12-31T04:14:35.308Z,5.97
2022-12-31T04:15:38.454Z,6.14
2022-12-31T04:16:41.776Z,6.93
2022-12-31T04:17:45.193Z,7.39
2022-12-31T04:18:48.320Z,6.29
2022-12-31T04:19:51.739Z,7.49
2022-12-31T04:20:54.900Z,6.41
2022-12-31T04:21:58.054Z,6.40
2022-12-31T04:23:01.341Z,6.00
2022-12-31T04:24:04.933Z,6.39
2022-12-31T04:25:11.499Z,6.13
2022-12-31T04:26:15.753Z,6.13
2022-12-31T04:27:18.935Z,6.10
2022-12-31T04:28:22.304Z,5.36
2022-12-31T04:29:25.641Z,5.94
2022-12-31T04:30:28.801Z,5.92
2022-12-31T04:31:32.190Z,5.39
2022-12-31T04:32:35.299Z,6.49
2022-12-31T04:33:38.494Z,5.83
2022-12-31T04:34:41.802Z,6.94
2022-12-31T04:35:44.901Z,6.31
2022-12-31T04:36:48.101Z,7.04
2022-12-31T04:37:51.313Z,6.17
2022-12-31T04:38:55.249Z,6.70
2022-12-31T04:40:03.694Z,7.02
2022-12-31T04:41:19.214Z,6.84
2022-12-31T04:42:22.533Z,7.07
2022-12-31T04:43:25.824Z,7.36
2022-12-31T04:44:28.829Z,7.01
2022-12-31T04:45:31.986Z,7.76
2022-12-31T04:46:35.276Z,6.99
2022-12-31T04:47:38.237Z,7.69
2022-12-31T04:48:41.222Z,7.76
2022-12-31T04:49:44.260Z,7.44
2022-12-31T04:50:47.320Z,7.06
2022-12-31T04:51:50.457Z,6.85
2022-12-31T04:52:53.742Z,7.58
2022-12-31T04:53:57.418Z,6.93
2022-12-31T04:55:00.681Z,7.46
2022-12-31T04:56:04.733Z,7.69
2022-12-31T04:57:07.806Z,7.54
2022-12-31T04:58:10.854Z,7.13
2022-12-31T04:59:13.900Z,7.36
2022-12-31T05:00:17.282Z,6.30
2022-12-31T05:01:21.451Z,7.51
2022-12-31T05:02:24.655Z,7.32
2022-12-31T05:03:27.971Z,8.14
2022-12-31T05:04:31.158Z,7.92
2022-12-31T05:05:37.775Z,7.76
2022-12-31T05:06:40.834Z,7.64
2022-12-31T05:07:44.346Z,7.28
2022-12-31T05:08:48.179Z,7.50
2022-12-31T05:09:51.435Z,7.88
2022-12-31T05:10:54.925Z,7.59
2022-12-31T05:11:58.767Z,7.12
2022-12-31T05:13:02.113Z,8.54
2022-12-31T05:14:05.079Z,7.36
2022-12-31T05:15:08.776Z,8.64
2022-12-31T05:16:12.222Z,8.67
2022-12-31T05:17:15.330Z,8.07
2022-12-31T05:18:18.681Z,7.76
2022-12-31T05:19:21.629Z,7.89
2022-12-31T05:20:24.566Z,8.28
2022-12-31T05:21:27.741Z,7.78
2022-12-31T05:22:30.795Z,8.43
2022-12-31T05:23:34.131Z,7.67
2022-12-31T05:24:37.296Z,8.73
2022-12-31T05:25:42.810Z,7.80
2022-12-31T05:26:45.926Z,8.11
2022-12-31T05:27:49.024Z,8.26
2022-12-31T05:28:52.284Z,8.84
2022-12-31T05:29:55.508Z,8.13
2022-12-31T05:31:00.015Z,8.33
2022-12-31T05:32:03.236Z,8.63
2022-12-31T05:33:06.417Z,8.91
2022-12-31T05:34:09.602Z,9.08
2022-12-31T05:35:12.880Z,7.59
2022-12-31T05:36:16.146Z,8.82
2022-12-31T05:37:19.209Z,9.58
2022-12-31T05:38:22.377Z,9.04
2022-12-31T05:39:25.552Z,8.14
2022-12-31T05:40:28.664Z,8.99
2022-12-31T05:41:31.848Z,9.60
2022-12-31T05:42:35.309Z,8.55
2022-12-31T05:43:38.475Z,9.09
2022-12-31T05:44:41.676Z,8.98
2022-12-31T05:45:44.945Z,9.46
2022-12-31T05:46:48.058Z,10.17
2022-12-31T05:47:52.356Z,9.04
2022-12-31T05:48:55.656Z,9.89
2022-12-31T05:49:58.861Z,10.14
2022-12-31T05:51:02.943Z,9.66
2022-12-31T05:52:06.556Z,8.76
2022-12-31T05:53:09.749Z,9.76
2022-12-31T05:54:13.030Z,9.37
2022-12-31T05:55:16.173Z,11.29
2022-12-31T05:56:20.163Z,9.91
2022-12-31T05:57:23.353Z,10.71
2022-12-31T05:58:27.849Z,10.25
2022-12-31T05:59:30.954Z,10.37
2022-12-31T06:00:34.128Z,10.20
2022-12-31T06:01:37.389Z,10.94
2022-12-31T06:02:40.975Z,10.48
2022-12-31T06:03:44.378Z,10.39
2022-12-31T06:04:47.879Z,11.03
2022-12-31T06:05:51.170Z,10.46
2022-12-31T06:06:55.198Z,10.21
2022-12-31T06:07:58.718Z,11.02
2022-12-31T06:09:02.097Z,10.47
2022-12-31T06:10:07.412Z,10.25
2022-12-31T06:11:10.521Z,11.45
2022-12-31T06:12:13.801Z,10.66
2022-12-31T06:13:16.901Z,11.49
2022-12-31T06:14:20.095Z,10.94
2022-12-31T06:15:23.234Z,11.06
2022-12-31T06:16:26.763Z,11.49
2022-12-31T06:17:31.890Z,12.04
2022-12-31T06:18:34.965Z,10.83
2022-12-31T06:19:39.024Z,11.95
2022-12-31T06:20:41.944Z,11.18
2022-12-31T06:21:45.053Z,11.55
2022-12-31T06:22:48.219Z,15.33
2022-12-31T06:23:51.326Z,11.63
2022-12-31T06:24:54.511Z,12.71
2022-12-31T06:26:03.149Z,12.62
2022-12-31T06:27:06.325Z,12.31
2022-12-31T06:28:12.183Z,12.99
2022-12-31T06:29:14.611Z,13.17
2022-12-31T06:30:17.842Z,12.58
2022-12-31T06:31:21.068Z,13.24
2022-12-31T06:32:24.187Z,11.80
2022-12-31T06:33:27.810Z,13.19
2022-12-31T06:34:30.953Z,13.14
2022-12-31T06:35:34.028Z,12.98
2022-12-31T06:36:37.185Z,12.39
2022-12-31T06:37:40.208Z,14.43
2022-12-31T06:38:43.943Z,14.13
2022-12-31T06:39:47.181Z,14.22
2022-12-31T06:40:50.300Z,14.46
2022-12-31T06:41:53.696Z,14.22
2022-12-31T06:43:00.106Z,13.36
2022-12-31T06:44:03.039Z,14.48
2022-12-31T06:45:06.918Z,13.81
2022-12-31T06:46:12.394Z,14.27
2022-12-31T06:47:15.649Z,14.89
2022-12-31T06:48:18.744Z,14.47
2022-12-31T06:49:21.935Z,15.63
2022-12-31T06:50:25.231Z,15.51
2022-12-31T06:51:29.792Z,15.00
2022-12-31T06:52:33.123Z,15.83
2022-12-31T06:53:36.168Z,15.52
2022-12-31T06:54:39.798Z,15.82
2022-12-31T06:55:43.402Z,15.83
2022-12-31T06:56:46.891Z,15.52
2022-12-31T06:57:50.313Z,14.93
2022-12-31T06:58:53.963Z,15.93
2022-12-31T06:59:57.585Z,15.93
2022-12-31T07:01:13.169Z,15.22
2022-12-31T07:02:53.253Z,16.28
2022-12-31T07:04:31.906Z,16.16
2022-12-31T07:05:47.828Z,17.23
2022-12-31T07:08:17.418Z,16.87
2022-12-31T07:09:33.127Z,17.93
2022-12-31T07:10:42.954Z,17.44
2022-12-31T07:11:52.211Z,17.58
2022-12-31T07:13:19.814Z,17.62
2022-12-31T07:14:29.216Z,17.10
2022-12-31T07:15:48.153Z,16.82
2022-12-31T07:17:23.788Z,17.87
2022-12-31T07:18:39.541Z,18.91
2022-12-31T07:20:04.491Z,18.11
2022-12-31T07:21:13.072Z,17.92
2022-12-31T07:22:16.899Z,17.86
2022-12-31T07:23:20.591Z,17.73
2022-12-31T07:24:24.046Z,19.32
2022-12-31T07:25:27.598Z,18.89
2022-12-31T07:26:57.063Z,17.92
2022-12-31T07:28:06.874Z,19.31
2022-12-31T07:31:01.945Z,18.24
2022-12-31T07:32:20.164Z,18.43
2022-12-31T07:35:34.735Z,17.63
2022-12-31T07:36:46.488Z,19.23
2022-12-31T07:39:41.178Z,18.16
2022-12-31T07:41:07.311Z,18.72
2022-12-31T07:42:18.146Z,19.47
2022-12-31T07:43:45.337Z,20.86
2022-12-31T07:45:03.982Z,18.14
2022-12-31T07:46:27.683Z,17.49
2022-12-31T07:47:31.253Z,18.58
2022-12-31T07:48:34.641Z,16.17
2022-12-31T07:49:40.359Z,18.08
2022-12-31T07:50:43.966Z,18.64
2022-12-31T07:51:47.440Z,18.79
2022-12-31T07:52:50.636Z,18.67
2022-12-31T07:53:53.730Z,18.03
2022-12-31T07:54:56.776Z,16.91
2022-12-31T07:56:02.179Z,17.93
2022-12-31T07:57:05.436Z,17.74
2022-12-31T07:59:47.323Z,18.61
2022-12-31T08:00:54.320Z,17.38
2022-12-31T08:02:29.987Z,16.80
2022-12-31T08:03:51.937Z,18.34
2022-12-31T08:05:24.241Z,17.36
2022-12-31T08:06:39.832Z,17.54
2022-12-31T08:08:03.270Z,17.59
2022-12-31T08:09:21.961Z,16.86
2022-12-31T08:10:37.692Z,16.55
2022-12-31T08:11:56.400Z,17.73
2022-12-31T08:13:03.242Z,20.22
2022-12-31T08:14:09.842Z,16.47
2022-12-31T08:15:15.043Z,17.87
2022-12-31T08:16:18.549Z,18.46
2022-12-31T08:17:22.020Z,15.93
2022-12-31T08:18:25.359Z,16.18
2022-12-31T08:19:31.103Z,16.18
2022-12-31T08:20:46.962Z,16.38
2022-12-31T08:23:21.995Z,16.36
2022-12-31T08:24:43.772Z,16.33
2022-12-31T08:26:14.778Z,15.54
2022-12-31T08:28:43.969Z,15.24
2022-12-31T08:29:53.513Z,16.78
2022-12-31T08:31:12.459Z,15.77
2022-12-31T08:32:28.282Z,15.45
2022-12-31T08:33:44.119Z,17.66
2022-12-31T08:35:13.417Z,15.77
2022-12-31T08:36:23.541Z,16.55
2022-12-31T08:37:30.310Z,15.23
2022-12-31T08:38:49.162Z,16.21
2022-12-31T08:40:25.803Z,15.73
2022-12-31T08:41:40.690Z,15.29
2022-12-31T08:42:46.778Z,16.14
2022-12-31T08:44:19.036Z,15.71
2022-12-31T08:46:59.003Z,13.99
2022-12-31T08:48:26.154Z,15.28
2022-12-31T08:49:32.498Z,15.23
2022-12-31T08:50:35.827Z,15.42
2022-12-31T08:51:39.380Z,15.03
2022-12-31T08:52:42.802Z,15.69
2022-12-31T08:53:47.691Z,15.19
2022-12-31T08:54:51.481Z,15.35
2022-12-31T08:56:01.001Z,15.51
2022-12-31T08:57:07.819Z,13.79
2022-12-31T08:58:49.538Z,13.50
2022-12-31T09:00:05.325Z,12.80
2022-12-31T09:01:09.310Z,13.20
2022-12-31T09:02:44.685Z,13.32
2022-12-31T09:03:57.421Z,14.25
2022-12-31T09:05:13.179Z,14.22
2022-12-31T09:08:11.318Z,13.44
2022-12-31T09:09:26.763Z,14.22
2022-12-31T09:10:33.336Z,13.28
2022-12-31T09:11:54.338Z,13.24
2022-12-31T09:14:26.520Z,12.36
2022-12-31T09:15:39.169Z,11.83
2022-12-31T09:16:51.568Z,10.91
2022-12-31T09:17:55.935Z,12.14
2022-12-31T09:18:59.192Z,11.86
2022-12-31T09:20:02.973Z,11.51
2022-12-31T09:21:08.302Z,12.18
2022-12-31T09:22:11.782Z,12.23
2022-12-31T09:23:15.348Z,12.33
2022-12-31T09:24:18.824Z,12.61
2022-12-31T09:25:23.328Z,13.06
2022-12-31T09:26:39.099Z,11.50
2022-12-31T09:30:03.481Z,12.28
2022-12-31T09:31:12.804Z,11.93
2022-12-31T09:32:22.093Z,12.54
2022-12-31T09:33:40.757Z,12.01
2022-12-31T09:34:56.102Z,12.21
2022-12-31T09:36:02.795Z,12.47
2022-12-31T09:38:26.015Z,12.09
2022-12-31T09:39:43.265Z,11.28
2022-12-31T09:41:07.986Z,11.09
2022-12-31T09:42:20.797Z,11.29
2022-12-31T09:43:39.642Z,11.14
2022-12-31T09:45:19.467Z,11.01
2022-12-31T09:46:47.008Z,11.37
2022-12-31T09:48:13.103Z,10.47
2022-12-31T09:49:42.516Z,10.44
2022-12-31T09:51:01.316Z,10.93
2022-12-31T09:52:33.663Z,10.92
2022-12-31T09:55:25.609Z,10.46
2022-12-31T09:57:05.548Z,11.44
2022-12-31T09:58:42.253Z,11.91
2022-12-31T09:59:55.087Z,12.13
2022-12-31T10:01:18.329Z,12.63
2022-12-31T10:02:59.061Z,12.02
2022-12-31T10:04:26.843Z,10.98
2022-12-31T10:05:39.417Z,12.26
2022-12-31T10:07:02.601Z,12.92
2022-12-31T10:08:18.452Z,13.05
2022-12-31T10:09:34.096Z,11.86
2022-12-31T10:10:47.486Z,12.60
2022-12-31T10:14:00.379Z,12.62
2022-12-31T10:15:22.095Z,11.03
2022-12-31T10:16:40.553Z,12.16
2022-12-31T10:18:02.378Z,11.26
2022-12-31T10:19:15.215Z,11.48
2022-12-31T10:20:45.472Z,11.06
2022-12-31T10:22:24.151Z,12.03
2022-12-31T10:23:47.420Z,13.01
2022-12-31T10:25:16.552Z,12.89
2022-12-31T10:27:43.451Z,13.86
2022-12-31T10:29:07.869Z,12.62
2022-12-31T10:30:19.735Z,13.51
2022-12-31T10:31:41.505Z,13.81
2022-12-31T10:32:51.343Z,13.01
2022-12-31T10:34:16.119Z,14.09
2022-12-31T10:35:43.474Z,13.53
2022-12-31T10:37:05.128Z,14.99
2022-12-31T10:38:24.013Z,12.74
2022-12-31T10:39:36.846Z,14.73
2022-12-31T10:41:13.984Z,14.13
2022-12-31T10:42:46.892Z,13.72
2022-12-31T10:44:25.327Z,13.07
2022-12-31T10:45:37.975Z,13.74
2022-12-31T10:48:16.506Z,13.28
2022-12-31T10:49:32.319Z,13.92
2022-12-31T10:50:55.629Z,13.47
2022-12-31T10:52:05.471Z,13.73
2022-12-31T10:53:18.190Z,14.23
2022-12-31T10:54:31.022Z,14.92
2022-12-31T10:56:09.548Z,14.37
2022-12-31T10:57:32.940Z,13.28
2022-12-31T10:59:05.172Z,14.54
2022-12-31T11:00:15.866Z,12.85
2022-12-31T11:03:33.481Z,11.77
2022-12-31T11:05:07.243Z,12.51
2022-12-31T11:06:30.943Z,12.59
2022-12-31T11:07:40.262Z,13.34
2022-12-31T11:08:52.803Z,13.24
2022-12-31T11:10:25.180Z,12.69
2022-12-31T11:12:03.564Z,13.97
2022-12-31T11:13:37.458Z,13.96
2022-12-31T11:16:12.762Z,13.22
2022-12-31T11:19:23.192Z,14.02
2022-12-31T11:20:29.928Z,12.26
2022-12-31T11:21:51.672Z,13.06
2022-12-31T11:23:04.551Z,11.42
2022-12-31T11:24:26.464Z,12.77
2022-12-31T11:25:33.104Z,12.54
2022-12-31T11:26:58.049Z,12.72
2022-12-31T11:28:04.809Z,12.89
2022-12-31T11:29:26.269Z,12.63
2022-12-31T11:30:49.863Z,13.63
2022-12-31T11:32:08.825Z,12.06
2022-12-31T11:33:27.430Z,12.68
2022-12-31T11:34:58.183Z,12.89
2022-12-31T11:36:26.273Z,12.44
2022-12-31T11:37:39.154Z,12.91
2022-12-31T11:38:45.887Z,12.68
2022-12-31T11:40:01.216Z,12.47
2022-12-31T11:41:23.123Z,12.63
2022-12-31T11:42:50.678Z,14.43
2022-12-31T11:44:11.865Z,15.02
2022-12-31T11:45:25.497Z,13.54
2022-12-31T11:46:48.596Z,14.72
2022-12-31T11:48:30.124Z,15.38
2022-12-31T11:49:41.599Z,14.78
2022-12-31T11:50:51.269Z,13.83
2022-12-31T11:52:21.845Z,14.49
2022-12-31T11:53:37.586Z,13.76
2022-12-31T11:55:00.993Z,13.43
2022-12-31T11:56:27.516Z,14.05
2022-12-31T11:57:37.112Z,13.98
2022-12-31T11:58:43.713Z,12.99
2022-12-31T11:59:47.062Z,12.88
2022-12-31T12:00:56.754Z,12.30
2022-12-31T12:02:30.605Z,13.18
2022-12-31T12:04:48.659Z,11.02
2022-12-31T12:05:51.859Z,11.37
2022-12-31T12:06:55.175Z,12.28
2022-12-31T12:07:58.429Z,11.54
2022-12-31T12:09:08.202Z,11.37
2022-12-31T12:10:36.541Z,11.56
2022-12-31T12:11:40.102Z,12.04
2022-12-31T12:12:43.385Z,13.20
2022-12-31T12:13:46.952Z,13.51
2022-12-31T12:14:53.673Z,12.27
2022-12-31T12:16:06.595Z,13.31
2022-12-31T12:17:19.227Z,12.51
2022-12-31T12:19:51.063Z,14.54
2022-12-31T12:21:12.475Z,14.22
2022-12-31T12:24:00.894Z,13.57
2022-12-31T12:25:07.719Z,13.18
2022-12-31T12:26:37.921Z,13.84
2022-12-31T12:27:41.027Z,13.51
2022-12-31T12:28:45.889Z,14.17
2022-12-31T12:29:49.104Z,13.44
2022-12-31T12:31:04.017Z,13.32
2022-12-31T12:32:16.831Z,12.97
2022-12-31T12:33:20.605Z,12.52
2022-12-31T12:34:27.084Z,12.82
2022-12-31T12:35:35.495Z,12.35
2022-12-31T12:36:42.218Z,12.01
2022-12-31T12:37:45.408Z,13.04
2022-12-31T12:38:48.615Z,13.94
2022-12-31T12:40:01.536Z,12.09
2022-12-31T12:41:07.139Z,12.44
2022-12-31T12:42:13.871Z,12.79
2022-12-31T12:43:29.271Z,13.41
2022-12-31T12:44:34.661Z,12.38
2022-12-31T12:45:51.813Z,13.33
2022-12-31T12:46:53.525Z,12.57
2022-12-31T12:48:02.397Z,14.00
2022-12-31T12:49:05.677Z,13.88
2022-12-31T12:50:21.039Z,13.76
2022-12-31T12:51:36.913Z,13.42
2022-12-31T12:52:59.410Z,13.91
2022-12-31T12:54:19.099Z,13.28
2022-12-31T12:55:28.989Z,14.80
2022-12-31T12:56:47.442Z,13.71
2022-12-31T12:58:00.147Z,13.99
2022-12-31T12:59:21.782Z,13.49
2022-12-31T13:00:37.574Z,12.82
2022-12-31T13:02:08.513Z,12.84
2022-12-31T13:04:34.301Z,13.64
2022-12-31T13:05:53.213Z,13.06
2022-12-31T13:07:08.735Z,14.45
2022-12-31T13:08:27.528Z,12.71
2022-12-31T13:09:40.002Z,13.93
2022-12-31T13:10:52.816Z,14.26
2022-12-31T13:14:46.130Z,12.76
2022-12-31T13:16:01.254Z,12.29
2022-12-31T13:17:15.033Z,11.82
2022-12-31T13:18:24.269Z,11.43
2022-12-31T13:19:50.434Z,11.77
2022-12-31T13:21:07.687Z,11.08
2022-12-31T13:22:19.320Z,10.97
2022-12-31T13:25:25.631Z,10.49
2022-12-31T13:26:48.235Z,11.23
2022-12-31T13:27:56.511Z,10.72
2022-12-31T13:29:08.741Z,11.88
2022-12-31T13:30:27.077Z,10.81
2022-12-31T13:31:37.086Z,10.82
2022-12-31T13:33:01.282Z,11.37
2022-12-31T13:34:22.878Z,10.99
2022-12-31T13:35:32.906Z,11.24
2022-12-31T13:36:39.640Z,12.89
2022-12-31T13:37:44.580Z,11.58
2022-12-31T13:38:55.110Z,12.09
2022-12-31T13:40:22.967Z,11.35
2022-12-31T13:41:38.586Z,12.41
2022-12-31T13:42:46.329Z,11.70
2022-12-31T13:44:20.729Z,11.53
2022-12-31T13:48:15.507Z,12.58
2022-12-31T13:49:24.169Z,12.79
2022-12-31T13:50:48.451Z,12.74
2022-12-31T13:52:02.623Z,13.43
2022-12-31T13:53:29.141Z,13.32
2022-12-31T13:54:56.539Z,11.97
2022-12-31T13:56:05.378Z,11.41
2022-12-31T13:57:19.366Z,11.42
2022-12-31T14:00:03.311Z,11.23
2022-12-31T14:01:33.411Z,11.89
2022-12-31T14:02:57.879Z,12.17
2022-12-31T14:04:11.924Z,11.07
2022-12-31T14:05:22.259Z,12.62
2022-12-31T14:07:00.472Z,12.03
2022-12-31T14:08:09.977Z,11.65
2022-12-31T14:09:35.916Z,12.14
2022-12-31T14:10:43.197Z,11.84
2022-12-31T14:12:14.481Z,12.13
2022-12-31T14:15:26.334Z,11.08
2022-12-31T14:16:42.515Z,12.41
2022-12-31T14:17:50.252Z,12.63
2022-12-31T14:19:16.678Z,12.07
2022-12-31T14:20:41.471Z,11.98
2022-12-31T14:22:11.126Z,11.72
2022-12-31T14:23:44.701Z,12.08
2022-12-31T14:24:54.774Z,12.40
2022-12-31T14:26:02.975Z,12.25
2022-12-31T14:29:14.188Z,12.43
2022-12-31T14:30:28.885Z,12.36
2022-12-31T14:31:36.403Z,12.87
2022-12-31T14:33:01.181Z,12.65
2022-12-31T14:36:10.963Z,11.49
2022-12-31T14:37:35.208Z,12.17
2022-12-31T14:38:46.965Z,12.32
2022-12-31T14:40:10.882Z,12.98
2022-12-31T14:41:32.032Z,12.81
2022-12-31T14:42:48.715Z,11.73
2022-12-31T14:44:28.161Z,12.81
2022-12-31T14:45:47.962Z,11.67
2022-12-31T14:49:06.398Z,12.59
2022-12-31T14:50:28.987Z,13.23
2022-12-31T14:51:45.562Z,13.17
2022-12-31T14:53:09.981Z,13.73
2022-12-31T14:54:40.990Z,14.36
2022-12-31T14:55:44.262Z,14.10
2022-12-31T14:56:50.917Z,13.42
2022-12-31T14:59:07.932Z,15.31
2022-12-31T15:00:38.197Z,14.07
2022-12-31T15:03:19.912Z,14.19
2022-12-31T15:04:35.825Z,15.41
2022-12-31T15:05:44.133Z,14.06
2022-12-31T15:09:09.892Z,15.36
2022-12-31T15:10:39.098Z,15.22
2022-12-31T15:12:01.751Z,13.95
2022-12-31T15:15:18.126Z,14.21
2022-12-31T15:16:29.683Z,13.88
2022-12-31T15:19:26.763Z,14.00
2022-12-31T15:20:56.928Z,12.19
2022-12-31T15:22:25.763Z,12.33
2022-12-31T15:23:40.501Z,11.97
2022-12-31T15:24:50.334Z,13.04
2022-12-31T15:26:02.362Z,11.94
2022-12-31T15:27:38.723Z,12.19
2022-12-31T15:28:43.777Z,11.37
2022-12-31T15:29:50.792Z,11.72
2022-12-31T15:31:05.822Z,12.14
2022-12-31T15:32:30.695Z,12.30
2022-12-31T15:33:41.092Z,12.58
2022-12-31T15:34:54.854Z,12.32
2022-12-31T15:36:12.389Z,12.31
2022-12-31T15:37:36.489Z,12.27
2022-12-31T15:38:41.547Z,12.58
2022-12-31T15:39:46.441Z,12.67
2022-12-31T15:44:04.286Z,12.73
2022-12-31T15:45:18.493Z,11.75
2022-12-31T15:48:06.439Z,12.04
2022-12-31T15:51:03.268Z,12.88
2022-12-31T15:52:11.073Z,13.46
2022-12-31T15:53:22.769Z,12.45
2022-12-31T15:54:39.390Z,11.92
2022-12-31T15:55:59.770Z,13.19
2022-12-31T15:57:09.489Z,12.20
2022-12-31T15:59:38.105Z,13.54
2022-12-31T16:01:10.754Z,13.76
2022-12-31T16:02:29.118Z,12.51
2022-12-31T16:04:58.123Z,12.32
2022-12-31T16:06:17.437Z,12.71
2022-12-31T16:07:24.726Z,13.57
2022-12-31T16:08:35.233Z,13.28
2022-12-31T16:09:40.873Z,13.08
2022-12-31T16:11:00.868Z,13.13
2022-12-31T16:12:21.717Z,12.97
2022-12-31T16:13:29.273Z,11.97
2022-12-31T16:14:52.252Z,12.81
2022-12-31T16:16:07.360Z,12.98
2022-12-31T16:17:52.062Z,11.86
2022-12-31T16:18:58.068Z,11.74
2022-12-31T16:21:47.243Z,11.34
2022-12-31T16:23:02.260Z,12.23
2022-12-31T16:24:20.857Z,12.81
2022-12-31T16:25:33.545Z,12.64
2022-12-31T16:27:44.713Z,12.84
2022-12-31T16:28:49.259Z,12.41
2022-12-31T16:30:01.685Z,12.45
2022-12-31T16:31:08.494Z,11.93
2022-12-31T16:32:15.693Z,11.16
2022-12-31T16:33:19.186Z,12.36
2022-12-31T16:34:25.793Z,11.97
2022-12-31T16:35:31.775Z,12.76
2022-12-31T16:36:35.548Z,11.64
2022-12-31T16:37:38.909Z,11.63
2022-12-31T16:38:42.412Z,12.01
2022-12-31T16:39:58.094Z,12.11